Time;durP1;ratioP1;P1;durP2;ratioP2;P2;SDS_P1;SDS_P2;PMS_P1;PMS_P2;Temp;Humidity;BMP_temperature;BMP_pressure;BME280_temperature;BME280_humidity;BME280_pressure;Samples;Min_cycle;Max_cycle;Signal;HPM_P1;HPM_P2
2022/08/21 00:00:31;;;;;;;7.57;4.28;;;25.60;96.70;;;;;;5036528;28;20045;-75
2022/08/21 00:03:03;;;;;;;8.35;4.38;;;25.60;96.70;;;;;;5070173;28;20092;-75
2022/08/21 00:05:32;;;;;;;6.38;4.13;;;25.60;96.70;;;;;;5038836;28;20090;-75
2022/08/21 00:08:02;;;;;;;5.90;4.50;;;25.60;96.70;;;;;;5035936;28;20139;-75
2022/08/21 00:10:30;;;;;;;5.40;4.15;;;25.60;96.70;;;;;;5054539;28;20052;-75
2022/08/21 00:12:59;;;;;;;6.40;4.80;;;25.60;96.70;;;;;;5028155;28;20386;-76
2022/08/21 00:15:30;;;;;;;10.57;4.45;;;25.60;96.70;;;;;;5054138;28;20051;-75
2022/08/21 00:17:58;;;;;;;6.60;4.25;;;25.60;96.70;;;;;;5064434;28;20029;-75
2022/08/21 00:20:27;;;;;;;7.30;4.60;;;25.50;96.70;;;;;;5029204;28;20490;-75
2022/08/21 00:22:54;;;;;;;6.32;4.90;;;25.40;96.70;;;;;;5057827;28;20114;-75
2022/08/21 00:25:26;;;;;;;8.18;4.15;;;25.30;96.70;;;;;;5041948;28;20655;-76
2022/08/21 00:27:54;;;;;;;8.32;4.18;;;25.30;96.70;;;;;;5042500;28;20051;-75
2022/08/21 00:30:25;;;;;;;7.22;4.07;;;25.30;96.70;;;;;;5048309;28;20098;-75
2022/08/21 00:32:55;;;;;;;7.65;4.30;;;25.30;96.70;;;;;;5043770;28;20048;-75
2022/08/21 00:35:25;;;;;;;9.05;4.00;;;25.30;96.70;;;;;;5040261;28;20320;-75
2022/08/21 00:37:53;;;;;;;7.30;4.50;;;25.30;96.70;;;;;;5055439;28;20040;-75
2022/08/21 00:40:31;;;;;;;10.35;4.70;;;25.30;96.70;;;;;;5050512;28;20585;-75
2022/08/21 00:43:03;;;;;;;11.05;4.63;;;25.20;96.70;;;;;;5069612;28;20041;-75
2022/08/21 00:45:31;;;;;;;10.88;4.60;;;25.10;96.70;;;;;;5050851;28;20049;-75
2022/08/21 00:47:59;;;;;;;10.23;4.10;;;25.10;96.70;;;;;;5056402;28;20112;-74
2022/08/21 00:50:31;;;;;;;8.85;4.60;;;25.10;96.70;;;;;;5057123;28;20041;-75
2022/08/21 00:53:06;;;;;;;7.43;4.35;;;25.10;96.70;;;;;;5042451;28;20049;-75
2022/08/21 00:55:37;;;;;;;8.38;5.00;;;25.10;96.70;;;;;;5058392;28;20056;-75
2022/08/21 00:58:13;;;;;;;8.07;5.05;;;25.10;96.70;;;;;;5051385;28;20056;-75
2022/08/21 01:00:46;;;;;;;8.43;5.15;;;25.10;96.70;;;;;;5052728;28;20102;-76
2022/08/21 01:03:16;;;;;;;8.35;4.78;;;25.00;96.70;;;;;;5037286;28;20063;-75
2022/08/21 01:05:45;;;;;;;6.35;4.50;;;25.00;96.70;;;;;;5037797;28;20749;-76
2022/08/21 01:08:16;;;;;;;9.20;4.63;;;25.00;96.70;;;;;;5044289;28;20037;-75
2022/08/21 01:10:46;;;;;;;9.60;4.88;;;25.10;96.70;;;;;;5037312;28;20051;-75
2022/08/21 01:13:30;;;;;;;11.20;4.05;;;25.20;96.70;;;;;;5045734;28;20399;-75
2022/08/21 01:16:02;;;;;;;7.60;5.00;;;25.20;96.70;;;;;;5038959;28;20151;-75
2022/08/21 01:18:30;;;;;;;8.70;4.60;;;25.10;96.70;;;;;;5062195;28;20045;-75
2022/08/21 01:21:11;;;;;;;9.57;4.80;;;25.10;96.70;;;;;;5042110;28;20037;-76
2022/08/21 01:23:41;;;;;;;5.95;4.10;;;25.20;96.70;;;;;;5041785;28;20048;-75
2022/08/21 01:26:10;;;;;;;7.82;4.35;;;25.20;96.70;;;;;;5059798;28;20131;-76
2022/08/21 01:28:42;;;;;;;13.93;5.15;;;25.20;96.70;;;;;;5057114;28;20044;-75
2022/08/21 01:31:12;;;;;;;9.13;4.90;;;25.20;96.70;;;;;;5043050;28;20513;-75
2022/08/21 01:33:40;;;;;;;8.50;4.78;;;25.10;96.70;;;;;;5046932;28;20056;-75
2022/08/21 01:36:09;;;;;;;9.93;5.22;;;25.10;96.70;;;;;;5073176;28;20041;-75
2022/08/21 01:38:37;;;;;;;8.65;4.50;;;25.20;96.70;;;;;;5032998;28;20450;-76
2022/08/21 01:41:06;;;;;;;6.05;4.90;;;25.10;96.70;;;;;;5052604;28;20144;-76
2022/08/21 01:43:34;;;;;;;8.05;4.82;;;25.10;96.70;;;;;;5041869;28;21345;-75
2022/08/21 01:46:06;;;;;;;9.95;4.70;;;25.10;96.70;;;;;;5037135;28;20483;-75
2022/08/21 01:48:34;;;;;;;9.10;4.72;;;25.00;96.70;;;;;;5045185;28;20040;-75
2022/08/21 01:51:03;;;;;;;6.53;3.85;;;24.90;96.70;;;;;;5043784;28;20125;-75
2022/08/21 01:53:35;;;;;;;8.18;4.80;;;24.80;96.70;;;;;;5055233;28;20052;-76
2022/08/21 01:56:06;;;;;;;10.05;4.60;;;24.80;96.70;;;;;;5041971;28;20062;-75
2022/08/21 01:58:39;;;;;;;7.10;3.85;;;24.60;96.70;;;;;;5053853;28;20045;-75
2022/08/21 02:01:08;;;;;;;9.07;4.00;;;24.60;96.70;;;;;;5048150;28;20051;-76
2022/08/21 02:03:37;;;;;;;6.43;4.22;;;24.80;96.70;;;;;;5021289;28;20132;-75
2022/08/21 02:06:06;;;;;;;5.95;3.80;;;24.90;96.70;;;;;;5055617;28;20514;-75
2022/08/21 02:08:36;;;;;;;7.00;4.10;;;24.90;96.70;;;;;;5041490;28;20049;-75
2022/08/21 02:11:03;;;;;;;7.13;4.03;;;24.90;96.70;;;;;;5025494;28;20041;-76
2022/08/21 02:13:31;;;;;;;6.75;3.80;;;24.90;96.70;;;;;;5056227;28;20048;-75
2022/08/21 02:15:59;;;;;;;11.57;4.30;;;24.90;96.70;;;;;;5059818;28;20056;-75
2022/08/21 02:18:27;;;;;;;6.60;4.53;;;24.90;96.70;;;;;;5055492;28;20049;-76
2022/08/21 02:20:55;;;;;;;5.85;3.75;;;25.00;96.70;;;;;;5052138;28;20136;-76
2022/08/21 02:23:24;;;;;;;5.40;3.70;;;25.00;96.70;;;;;;5066999;28;20045;-75
2022/08/21 02:25:56;;;;;;;6.00;3.85;;;25.00;96.70;;;;;;5038530;28;20061;-75
2022/08/21 02:28:25;;;;;;;6.32;3.92;;;25.00;96.70;;;;;;5038902;28;20626;-75
2022/08/21 02:30:55;;;;;;;7.15;4.55;;;25.00;96.70;;;;;;5055452;28;20494;-76
2022/08/21 02:33:24;;;;;;;7.55;4.20;;;25.00;96.70;;;;;;5055131;28;20056;-75
2022/08/21 02:35:52;;;;;;;14.30;6.07;;;25.00;96.70;;;;;;5041326;28;20654;-76
2022/08/21 02:38:22;;;;;;;12.77;6.20;;;25.10;96.70;;;;;;5054826;28;20052;-75
2022/08/21 02:40:51;;;;;;;11.10;5.05;;;25.00;96.70;;;;;;5059171;28;20048;-75
2022/08/21 02:43:23;;;;;;;14.00;5.93;;;25.00;96.70;;;;;;5045149;28;20123;-75
2022/08/21 02:45:51;;;;;;;12.50;5.28;;;25.00;96.70;;;;;;5030477;28;20057;-75
2022/08/21 02:48:21;;;;;;;10.80;5.32;;;24.90;96.70;;;;;;5062891;28;20122;-75
2022/08/21 02:50:54;;;;;;;10.98;5.20;;;24.80;96.70;;;;;;5035880;28;20236;-75
2022/08/21 02:53:22;;;;;;;11.27;5.78;;;24.60;96.70;;;;;;5041136;28;20052;-75
2022/08/21 02:55:52;;;;;;;18.77;6.20;;;24.60;96.70;;;;;;5055570;28;20047;-75
2022/08/21 02:58:24;;;;;;;14.77;6.43;;;24.60;96.70;;;;;;5059513;28;20048;-76
2022/08/21 03:00:53;;;;;;;10.93;6.03;;;24.70;96.70;;;;;;5050872;28;20068;-75
2022/08/21 03:03:26;;;;;;;16.17;7.85;;;24.70;96.70;;;;;;5048167;28;20041;-75
2022/08/21 03:05:58;;;;;;;;;;;24.80;96.70;;;;;;5020995;28;21150;-75
2022/08/21 03:08:26;;;;;;;17.30;7.68;;;24.80;96.70;;;;;;5018593;28;20415;-75
2022/08/21 03:10:55;;;;;;;17.13;6.70;;;24.70;96.70;;;;;;5023500;28;20056;-75
2022/08/21 03:13:27;;;;;;;14.75;6.70;;;24.80;96.70;;;;;;5018429;28;20559;-75
2022/08/21 03:15:55;;;;;;;14.23;6.75;;;24.90;96.70;;;;;;5019429;28;20054;-76
2022/08/21 03:18:25;;;;;;;14.90;7.22;;;24.90;96.70;;;;;;5021340;28;20072;-75
2022/08/21 03:20:53;;;;;;;17.83;7.22;;;24.90;96.70;;;;;;5023671;28;20041;-75
2022/08/21 03:23:22;;;;;;;19.58;7.07;;;24.80;96.70;;;;;;5023732;28;20161;-75
2022/08/21 03:25:50;;;;;;;16.80;8.48;;;24.70;96.70;;;;;;5013360;28;20045;-75
2022/08/21 03:28:22;;;;;;;21.05;8.05;;;24.70;96.70;;;;;;5013850;28;20046;-75
2022/08/21 03:30:53;;;;;;;17.20;8.07;;;24.60;96.70;;;;;;5021965;28;20041;-75
2022/08/21 03:33:21;;;;;;;21.17;9.75;;;24.70;96.70;;;;;;5024338;28;20113;-75
2022/08/21 03:35:57;;;;;;;24.58;10.60;;;24.60;96.70;;;;;;5023508;28;20037;-75
2022/08/21 03:38:27;;;;;;;21.98;10.40;;;24.50;96.70;;;;;;5023598;28;20045;-75
2022/08/21 03:40:55;;;;;;;21.88;10.18;;;24.50;96.70;;;;;;5022985;28;20061;-75
2022/08/21 03:43:23;;;;;;;24.98;12.07;;;24.50;96.70;;;;;;5020215;28;20045;-75
2022/08/21 03:45:53;;;;;;;19.77;10.68;;;24.50;96.70;;;;;;5021096;28;20042;-75
2022/08/21 03:48:21;;;;;;;25.50;11.18;;;24.50;96.70;;;;;;5015438;28;20092;-75
2022/08/21 03:50:52;;;;;;;24.88;12.02;;;24.50;96.70;;;;;;5025006;28;20041;-75
2022/08/21 03:53:20;;;;;;;23.98;11.38;;;24.40;96.70;;;;;;5022706;28;20398;-75
2022/08/21 03:55:50;;;;;;;22.15;10.98;;;24.40;96.70;;;;;;5027289;28;20045;-75
2022/08/21 03:58:21;;;;;;;25.45;12.40;;;24.40;96.70;;;;;;5027160;28;20059;-75
2022/08/21 04:00:53;;;;;;;22.52;10.73;;;24.40;96.70;;;;;;5027220;28;20087;-75
2022/08/21 04:03:22;;;;;;;26.95;11.15;;;24.60;96.70;;;;;;5021968;28;20148;-75
2022/08/21 04:05:50;;;;;;;26.42;10.10;;;24.70;96.70;;;;;;5012632;28;20057;-75
2022/08/21 04:08:19;;;;;;;25.63;11.75;;;24.70;96.70;;;;;;5019875;28;20053;-75
2022/08/21 04:10:49;;;;;;;23.98;9.90;;;24.70;96.70;;;;;;5019249;28;20041;-76
2022/08/21 04:13:18;;;;;;;25.08;10.75;;;24.70;96.70;;;;;;5008645;28;20115;-75
2022/08/21 04:15:46;;;;;;;19.02;10.50;;;24.80;96.70;;;;;;5033130;28;20069;-75
2022/08/21 04:18:16;;;;;;;23.88;10.65;;;24.90;96.70;;;;;;5000860;28;20053;-75
2022/08/21 04:20:46;;;;;;;24.73;11.07;;;24.90;96.70;;;;;;5015910;28;20111;-75
2022/08/21 04:23:17;;;;;;;22.00;10.30;;;24.80;96.70;;;;;;5020254;28;20132;-75
2022/08/21 04:25:51;;;;;;;25.30;11.23;;;24.80;96.70;;;;;;5023342;28;20054;-75
2022/08/21 04:28:20;;;;;;;18.38;9.57;;;24.80;96.70;;;;;;5018311;28;20046;-76
2022/08/21 04:30:51;;;;;;;22.90;10.65;;;24.90;96.70;;;;;;5022725;28;20065;-75
2022/08/21 04:33:22;;;;;;;19.13;10.60;;;24.80;96.70;;;;;;5019775;28;20060;-75
2022/08/21 04:35:50;;;;;;;18.92;10.32;;;24.80;96.70;;;;;;5018441;28;20725;-75
2022/08/21 04:38:18;;;;;;;18.42;9.07;;;24.70;96.70;;;;;;5018709;28;20049;-76
2022/08/21 04:40:48;;;;;;;16.58;9.98;;;24.70;96.70;;;;;;5016051;28;20105;-75
2022/08/21 04:43:18;;;;;;;19.38;10.55;;;24.80;96.70;;;;;;5021867;28;20810;-75
2022/08/21 04:45:47;;;;;;;21.48;10.80;;;24.80;96.70;;;;;;5017131;28;20045;-76
2022/08/21 04:48:18;;;;;;;19.60;10.48;;;24.70;96.70;;;;;;5004032;28;20046;-75
2022/08/21 04:50:53;;;;;;;21.50;10.20;;;24.70;96.70;;;;;;5015923;28;20049;-75
2022/08/21 04:53:24;;;;;;;21.30;10.18;;;24.70;96.70;;;;;;5023565;28;20073;-75
2022/08/21 04:55:55;;;;;;;24.10;11.32;;;24.70;96.70;;;;;;5018806;28;20140;-75
2022/08/21 04:58:26;;;;;;;20.23;12.27;;;24.70;96.70;;;;;;5021708;28;20132;-75
2022/08/21 05:00:56;;;;;;;23.45;12.15;;;24.70;96.70;;;;;;5015932;28;20037;-76
2022/08/21 05:03:24;;;;;;;28.33;11.68;;;24.60;96.70;;;;;;5015505;28;20057;-76
2022/08/21 05:05:54;;;;;;;25.63;10.45;;;24.70;96.70;;;;;;5000482;28;20050;-75
2022/08/21 05:08:25;;;;;;;28.15;12.23;;;24.70;96.70;;;;;;5019850;28;20402;-75
2022/08/21 05:10:54;;;;;;;28.35;10.68;;;24.60;96.70;;;;;;5020242;28;20046;-76
2022/08/21 05:13:27;;;;;;;23.05;10.50;;;24.70;96.70;;;;;;4998430;28;20054;-75
2022/08/21 05:15:55;;;;;;;24.88;9.60;;;24.60;96.70;;;;;;5019774;28;20038;-75
2022/08/21 05:18:24;;;;;;;22.15;10.35;;;24.60;96.70;;;;;;5016569;28;20046;-76
2022/08/21 05:20:53;;;;;;;31.25;12.10;;;24.60;96.70;;;;;;5016349;28;20034;-75
2022/08/21 05:23:21;;;;;;;30.33;10.73;;;24.60;96.70;;;;;;5016416;28;20514;-75
2022/08/21 05:25:50;;;;;;;33.65;11.23;;;24.70;96.70;;;;;;5022284;28;20570;-75
2022/08/21 05:28:18;;;;;;;29.33;11.18;;;24.70;96.70;;;;;;5016604;28;20050;-75
2022/08/21 05:30:46;;;;;;;25.08;11.15;;;24.70;96.70;;;;;;5023605;28;20052;-75
2022/08/21 05:33:15;;;;;;;32.63;12.23;;;24.80;96.70;;;;;;5020539;28;20104;-75
2022/08/21 05:35:43;;;;;;;36.92;14.05;;;24.90;96.70;;;;;;5019270;28;20500;-75
2022/08/21 05:38:12;;;;;;;40.60;15.00;;;24.80;96.70;;;;;;5026997;28;20527;-75
2022/08/21 05:40:45;;;;;;;40.40;14.13;;;24.80;96.70;;;;;;5017220;28;20054;-75
2022/08/21 05:43:13;;;;;;;28.48;12.20;;;24.80;96.70;;;;;;5015368;28;20129;-75
2022/08/21 05:45:42;;;;;;;39.85;13.68;;;24.80;96.70;;;;;;5016581;28;20080;-75
2022/08/21 05:48:13;;;;;;;37.20;12.98;;;24.80;96.70;;;;;;5023326;28;20045;-75
2022/08/21 05:50:42;;;;;;;42.15;13.35;;;24.90;96.70;;;;;;5020875;28;20148;-76
2022/08/21 05:53:12;;;;;;;33.90;13.38;;;24.80;96.70;;;;;;5019293;28;20041;-75
2022/08/21 05:55:41;;;;;;;42.75;13.65;;;24.80;96.70;;;;;;5020791;28;20103;-76
2022/08/21 05:58:14;;;;;;;38.30;12.93;;;24.80;96.70;;;;;;5014870;28;20054;-75
2022/08/21 06:00:42;;;;;;;39.20;13.13;;;24.80;96.70;;;;;;5019686;28;20040;-75
2022/08/21 06:03:15;;;;;;;34.28;12.85;;;24.80;96.70;;;;;;5015912;28;20811;-75
2022/08/21 06:05:43;;;;;;;33.50;14.05;;;24.70;96.70;;;;;;5054366;28;20146;-75
2022/08/21 06:08:15;;;;;;;32.17;13.52;;;24.80;96.70;;;;;;5039001;28;20051;-75
2022/08/21 06:10:43;;;;;;;29.00;12.57;;;24.80;96.70;;;;;;5021518;28;20494;-75
2022/08/21 06:13:12;;;;;;;28.08;13.57;;;24.80;96.70;;;;;;5040180;28;20037;-75
2022/08/21 06:15:41;;;;;;;25.60;13.65;;;24.90;96.70;;;;;;5039822;28;20636;-75
2022/08/21 06:18:09;;;;;;;24.05;12.38;;;25.00;96.70;;;;;;5050071;28;20040;-76
2022/08/21 06:20:37;;;;;;;26.02;13.40;;;25.00;96.70;;;;;;5050097;28;20045;-75
2022/08/21 06:23:05;;;;;;;22.13;13.48;;;25.00;96.70;;;;;;5039809;28;20041;-75
2022/08/21 06:25:35;;;;;;;24.02;13.45;;;25.00;96.70;;;;;;5052488;28;20049;-75
2022/08/21 06:28:06;;;;;;;29.10;14.05;;;25.00;96.70;;;;;;5056478;28;20411;-75
2022/08/21 06:30:35;;;;;;;24.70;13.70;;;25.00;96.70;;;;;;5058720;28;20045;-75
2022/08/21 06:33:03;;;;;;;24.98;12.93;;;25.00;96.70;;;;;;5055759;28;20045;-76
2022/08/21 06:35:31;;;;;;;23.50;12.93;;;25.10;96.70;;;;;;5027523;28;20699;-75
2022/08/21 06:37:59;;;;;;;24.25;13.43;;;25.20;96.70;;;;;;5039345;28;20525;-76
2022/08/21 06:40:28;;;;;;;23.65;13.68;;;25.30;96.70;;;;;;5036752;28;20122;-76
2022/08/21 06:43:04;;;;;;;24.73;12.65;;;25.30;96.70;;;;;;5022938;28;20554;-75
2022/08/21 06:45:32;;;;;;;22.13;12.25;;;25.30;96.70;;;;;;5051450;28;20071;-75
2022/08/21 06:48:00;;;;;;;22.02;13.00;;;25.30;96.70;;;;;;5054587;28;20495;-78
2022/08/21 06:50:29;;;;;;;26.55;13.38;;;25.40;96.70;;;;;;5030151;28;20044;-77
2022/08/21 06:53:02;;;;;;;28.35;13.10;;;25.50;96.70;;;;;;5041120;28;20607;-78
2022/08/21 06:55:31;;;;;;;20.10;12.68;;;25.50;96.70;;;;;;5015644;28;20056;-79
2022/08/21 06:58:02;;;;;;;25.25;13.57;;;25.60;96.70;;;;;;5052877;28;20068;-79
2022/08/21 07:00:31;;;;;;;22.70;13.45;;;25.70;96.70;;;;;;5056266;28;20041;-80
2022/08/21 07:02:59;;;;;;;24.42;12.05;;;25.70;96.70;;;;;;5056730;28;20128;-76
2022/08/21 07:05:28;;;;;;;24.52;13.10;;;25.70;96.70;;;;;;5059827;28;20056;-75
2022/08/21 07:07:57;;;;;;;25.55;12.55;;;25.90;96.70;;;;;;5029347;28;20540;-75
2022/08/21 07:10:26;;;;;;;20.77;12.70;;;26.00;96.70;;;;;;5034298;28;20055;-75
2022/08/21 07:12:55;;;;;;;22.42;12.48;;;25.90;96.70;;;;;;5057001;28;20542;-75
2022/08/21 07:15:30;;;;;;;19.45;11.88;;;25.90;96.70;;;;;;5034413;28;20049;-76
2022/08/21 07:18:13;;;;;;;23.50;12.32;;;25.90;96.70;;;;;;5044145;28;20056;-76
2022/08/21 07:20:42;;;;;;;22.73;12.25;;;26.00;96.70;;;;;;5038669;28;20044;-77
2022/08/21 07:23:17;;;;;;;24.00;12.65;;;26.10;96.70;;;;;;5054302;28;20345;-77
2022/08/21 07:25:45;;;;;;;360.73;45.97;;;25.90;96.70;;;;;;5056726;28;20045;-75
2022/08/21 07:28:14;;;;;;;119.18;22.23;;;25.90;96.70;;;;;;5035610;28;20151;-75
2022/08/21 07:30:44;;;;;;;87.07;19.20;;;25.90;96.70;;;;;;5074793;28;20143;-75
2022/08/21 07:33:13;;;;;;;105.50;19.65;;;26.00;96.70;;;;;;5059498;28;20446;-75
2022/08/21 07:35:41;;;;;;;43.65;14.68;;;26.00;96.70;;;;;;5040015;28;20379;-77
2022/08/21 07:38:09;;;;;;;28.50;12.88;;;26.00;96.70;;;;;;5046867;28;20037;-76
2022/08/21 07:40:38;;;;;;;32.40;12.77;;;26.00;96.70;;;;;;5044903;28;20044;-75
2022/08/21 07:43:06;;;;;;;28.60;12.40;;;25.90;96.70;;;;;;5038897;28;20056;-75
2022/08/21 07:45:35;;;;;;;23.40;11.68;;;26.00;96.70;;;;;;5054454;28;20033;-75
2022/08/21 07:48:05;;;;;;;25.38;10.90;;;26.10;96.70;;;;;;5042858;28;20457;-74
2022/08/21 07:50:33;;;;;;;25.35;10.65;;;26.10;96.70;;;;;;5054218;28;20608;-76
2022/08/21 07:53:02;;;;;;;22.52;10.30;;;26.20;96.70;;;;;;5036406;28;20486;-75
2022/08/21 07:55:30;;;;;;;18.95;9.45;;;26.30;96.70;;;;;;5032655;28;20636;-75
2022/08/21 07:57:59;;;;;;;26.55;10.05;;;26.30;96.70;;;;;;5037842;28;20520;-75
2022/08/21 08:00:28;;;;;;;19.23;8.50;;;26.40;96.70;;;;;;5041617;28;20163;-75
2022/08/21 08:02:57;;;;;;;17.25;8.27;;;26.50;96.70;;;;;;5061816;28;20045;-76
2022/08/21 08:05:30;;;;;;;19.08;8.45;;;26.50;96.70;;;;;;5034621;28;20538;-77
2022/08/21 08:07:58;;;;;;;15.35;7.20;;;26.60;96.70;;;;;;5015875;28;20041;-75
2022/08/21 08:10:27;;;;;;;44.90;10.55;;;26.60;96.70;;;;;;5035558;28;20037;-76
2022/08/21 08:12:56;;;;;;;72.20;10.40;;;26.60;96.70;;;;;;5019412;28;20042;-75
2022/08/21 08:15:27;;;;;;;83.97;12.82;;;26.70;96.70;;;;;;5026149;28;20051;-75
2022/08/21 08:17:56;;;;;;;16.27;6.80;;;26.80;96.70;;;;;;5016154;28;20068;-77
2022/08/21 08:20:26;;;;;;;29.50;7.80;;;27.00;96.70;;;;;;5030836;28;20045;-74
2022/08/21 08:22:56;;;;;;;14.85;6.30;;;27.10;96.70;;;;;;5011666;28;20496;-75
2022/08/21 08:25:25;;;;;;;22.73;6.68;;;27.10;96.70;;;;;;5016617;28;20045;-76
2022/08/21 08:27:54;;;;;;;17.45;6.50;;;27.20;96.70;;;;;;4997756;28;20139;-75
2022/08/21 08:30:23;;;;;;;13.90;6.15;;;27.30;96.70;;;;;;5023197;28;20096;-75
2022/08/21 08:32:55;;;;;;;14.00;6.35;;;27.40;96.70;;;;;;5019957;28;20038;-74
2022/08/21 08:35:24;;;;;;;13.07;5.68;;;27.50;96.70;;;;;;5023453;28;20184;-74
2022/08/21 08:37:55;;;;;;;9.75;5.28;;;27.50;96.70;;;;;;5022275;28;20072;-74
2022/08/21 08:40:33;;;;;;;7.90;5.10;;;27.50;96.70;;;;;;5014388;28;20053;-74
2022/08/21 08:43:02;;;;;;;12.05;5.78;;;27.60;96.70;;;;;;5028114;28;20589;-75
2022/08/21 08:45:36;;;;;;;10.07;4.72;;;27.80;96.70;;;;;;5018175;28;20061;-74
2022/08/21 08:48:08;;;;;;;9.40;5.78;;;27.80;96.70;;;;;;5016712;28;20049;-74
2022/08/21 08:50:45;;;;;;;9.90;5.10;;;27.80;96.70;;;;;;5021229;28;20045;-74
2022/08/21 08:53:21;;;;;;;9.07;5.00;;;27.80;96.70;;;;;;5035759;28;20052;-74
2022/08/21 08:55:52;;;;;;;8.75;5.15;;;27.90;96.70;;;;;;5020488;28;20053;-74
2022/08/21 08:58:24;;;;;;;6.45;5.13;;;27.90;96.70;;;;;;5019354;28;20049;-75
2022/08/21 09:00:54;;;;;;;9.82;5.95;;;27.90;96.70;;;;;;5018735;28;20076;-74
2022/08/21 09:03:24;;;;;;;7.53;5.03;;;27.90;96.70;;;;;;5016600;28;20046;-73
2022/08/21 09:05:59;;;;;;;6.70;5.03;;;27.90;96.70;;;;;;5018073;28;20050;-76
2022/08/21 09:08:43;;;;;;;7.80;5.30;;;28.00;96.70;;;;;;5024252;28;20629;-76
2022/08/21 09:11:21;;;;;;;10.23;5.82;;;28.00;96.70;;;;;;5021943;28;20088;-75
2022/08/21 09:13:55;;;;;;;8.88;5.50;;;28.00;96.70;;;;;;5019186;28;20037;-74
2022/08/21 09:16:33;;;;;;;9.05;5.97;;;28.00;96.70;;;;;;5022752;28;20045;-75
2022/08/21 09:19:10;;;;;;;10.20;5.90;;;28.00;96.70;;;;;;5022082;28;20059;-73
2022/08/21 09:21:49;;;;;;;8.82;5.30;;;28.10;96.70;;;;;;5018703;28;20038;-75
2022/08/21 09:24:31;;;;;;;8.70;5.63;;;28.20;96.70;;;;;;5020523;28;20725;-74
2022/08/21 09:27:07;;;;;;;10.88;5.30;;;28.30;96.70;;;;;;5020780;28;20408;-73
2022/08/21 09:29:39;;;;;;;8.10;6.35;;;28.50;96.70;;;;;;5015503;28;20049;-75
2022/08/21 09:32:15;;;;;;;10.43;5.95;;;28.50;96.70;;;;;;5021045;28;20038;-76
2022/08/21 09:34:57;;;;;;;12.70;5.85;;;28.60;96.70;;;;;;5015097;28;20484;-75
2022/08/21 09:37:25;;;;;;;10.98;6.20;;;28.60;96.70;;;;;;5019622;28;20049;-74
2022/08/21 09:39:57;;;;;;;8.07;5.55;;;28.60;96.70;;;;;;5013527;28;20679;-75
2022/08/21 09:42:27;;;;;;;11.27;6.70;;;28.60;96.70;;;;;;5013038;28;20048;-76
2022/08/21 09:45:11;;;;;;;12.38;9.48;;;28.50;96.70;;;;;;5022293;28;20045;-76
2022/08/21 09:47:40;;;;;;;8.07;7.25;;;28.60;96.70;;;;;;5013837;28;20053;-76
2022/08/21 09:50:12;;;;;;;8.15;5.57;;;28.70;96.70;;;;;;5017657;28;20046;-75
2022/08/21 09:52:47;;;;;;;8.30;5.72;;;28.90;96.70;;;;;;5019245;28;20557;-75
2022/08/21 09:58:20;;;;;;;7.70;5.15;;;29.00;96.70;;;;;;5016231;28;20064;-75
2022/08/21 10:00:58;;;;;;;9.35;5.07;;;29.00;96.70;;;;;;5017712;28;20164;-76
2022/08/21 10:03:27;;;;;;;9.73;5.07;;;28.90;96.70;;;;;;5014675;28;20050;-75
2022/08/21 10:05:59;;;;;;;9.45;4.90;;;28.90;96.70;;;;;;5034119;28;20491;-77
2022/08/21 10:08:29;;;;;;;7.63;5.35;;;28.90;96.70;;;;;;5038253;28;20107;-75
2022/08/21 10:11:06;;;;;;;6.93;3.92;;;29.00;96.70;;;;;;5042564;28;20033;-75
2022/08/21 10:13:48;;;;;;;7.55;4.80;;;29.00;96.70;;;;;;5038533;28;20466;-75
2022/08/21 10:16:27;;;;;;;4.85;3.45;;;29.20;96.70;;;;;;5024806;28;20567;-75
2022/08/21 10:19:07;;;;;;;4.32;3.75;;;29.40;96.70;;;;;;5040697;28;20053;-75
2022/08/21 10:21:41;;;;;;;5.53;3.50;;;29.40;96.70;;;;;;5034723;28;20158;-76
2022/08/21 10:24:17;;;;;;;6.10;3.50;;;29.50;96.70;;;;;;5037240;28;20403;-75
2022/08/21 10:27:12;;;;;;;7.07;3.65;;;29.60;96.70;;;;;;5027953;28;20151;-76
2022/08/21 10:29:49;;;;;;;7.68;4.60;;;29.80;96.70;;;;;;5022497;28;20045;-76
2022/08/21 10:32:39;;;;;;;7.05;3.30;;;29.90;96.70;;;;;;5022674;28;20088;-76
2022/08/21 10:35:13;;;;;;;4.40;3.72;;;30.00;96.70;;;;;;5037344;28;20486;-76
2022/08/21 10:37:59;;;;;;;7.40;4.07;;;30.00;96.70;;;;;;5036735;28;20055;-76
2022/08/21 10:40:34;;;;;;;4.90;3.70;;;30.00;96.70;;;;;;5041814;28;20396;-76
2022/08/21 10:43:16;;;;;;;5.45;3.10;;;29.90;96.70;;;;;;5036890;28;20048;-76
2022/08/21 10:45:55;;;;;;;4.97;3.80;;;30.00;96.70;;;;;;5037422;28;20060;-76
2022/08/21 10:48:29;;;;;;;4.97;3.75;;;30.10;96.70;;;;;;5041108;28;20448;-76
2022/08/21 10:51:06;;;;;;;4.90;3.20;;;30.20;96.70;;;;;;5032579;28;20533;-76
2022/08/21 10:53:46;;;;;;;4.15;3.53;;;30.30;96.70;;;;;;5041666;28;20045;-76
2022/08/21 10:56:19;;;;;;;4.43;3.50;;;30.40;96.70;;;;;;5038223;28;20139;-76
2022/08/21 10:58:59;;;;;;;3.88;3.38;;;30.30;96.70;;;;;;5041340;28;20052;-76
2022/08/21 11:01:32;;;;;;;5.80;3.75;;;30.30;96.70;;;;;;5038353;28;20719;-76
2022/08/21 11:04:16;;;;;;;5.63;3.80;;;30.40;96.70;;;;;;5033891;28;20057;-76
2022/08/21 11:07:09;;;;;;;4.53;3.50;;;30.40;96.70;;;;;;5032663;28;20519;-76
2022/08/21 11:10:12;;;;;;;8.07;5.07;;;30.60;96.70;;;;;;5033129;28;20511;-75
2022/08/21 11:12:47;;;;;;;5.05;3.65;;;30.50;96.70;;;;;;5039293;28;20056;-76
2022/08/21 11:15:30;;;;;;;5.38;4.20;;;30.40;96.70;;;;;;5029806;28;20044;-76
2022/08/21 11:18:16;;;;;;;5.55;3.95;;;30.40;96.70;;;;;;5042359;28;20700;-76
2022/08/21 11:20:55;;;;;;;4.60;3.70;;;30.40;96.70;;;;;;5036823;28;20491;-76
2022/08/21 11:23:28;;;;;;;4.68;3.60;;;30.60;96.70;;;;;;5031015;28;20103;-76
2022/08/21 11:26:04;;;;;;;6.18;3.63;;;30.50;96.70;;;;;;5040469;28;20045;-76
2022/08/21 11:28:37;;;;;;;5.97;3.70;;;30.60;96.70;;;;;;5035892;28;20060;-76
2022/08/21 11:31:18;;;;;;;4.78;3.25;;;30.70;96.70;;;;;;5034327;28;20049;-76
2022/08/21 11:33:56;;;;;;;5.18;3.25;;;30.70;96.70;;;;;;5043235;28;20049;-76
2022/08/21 11:36:32;;;;;;;4.07;3.53;;;30.90;96.70;;;;;;5039201;28;20123;-76
2022/08/21 11:39:09;;;;;;;4.20;3.20;;;31.00;96.70;;;;;;5032643;28;20490;-76
2022/08/21 11:41:42;;;;;;;5.35;4.10;;;30.90;96.70;;;;;;5034194;28;20033;-76
2022/08/21 11:44:18;;;;;;;4.07;3.17;;;30.90;96.70;;;;;;5035230;28;20107;-76
2022/08/21 11:46:55;;;;;;;5.20;3.40;;;31.00;96.70;;;;;;5038954;28;20041;-76
2022/08/21 11:49:40;;;;;;;4.50;3.53;;;31.10;96.70;;;;;;5029731;28;20072;-76
2022/08/21 11:52:17;;;;;;;5.30;3.20;;;31.30;96.70;;;;;;5037413;28;20049;-76
2022/08/21 11:54:49;;;;;;;3.30;2.67;;;31.40;96.70;;;;;;5035723;28;20040;-76
2022/08/21 11:57:28;;;;;;;3.15;2.40;;;31.50;96.70;;;;;;5041445;28;20041;-76
2022/08/21 12:00:01;;;;;;;4.50;2.60;;;31.60;96.70;;;;;;5029902;28;20053;-77
2022/08/21 12:02:45;;;;;;;3.67;2.50;;;31.90;96.70;;;;;;5032637;28;20519;-76
2022/08/21 12:05:26;;;;;;;3.15;2.38;;;31.80;96.70;;;;;;5025279;28;20053;-76
2022/08/21 12:08:07;;;;;;;4.38;2.13;;;31.60;96.70;;;;;;5011341;28;20112;-76
2022/08/21 12:10:40;;;;;;;3.72;2.53;;;31.40;96.70;;;;;;5016983;28;20077;-76
2022/08/21 12:13:13;;;;;;;4.65;2.10;;;31.20;96.70;;;;;;5011773;28;20053;-76
2022/08/21 12:16:04;;;;;;;4.20;2.20;;;31.00;96.70;;;;;;5020143;28;20079;-76
2022/08/21 12:19:04;;;;;;;6.43;2.70;;;30.90;96.70;;;;;;5015674;28;20123;-76
2022/08/21 12:21:33;;;;;;;3.50;2.00;;;31.10;96.70;;;;;;5021672;28;20073;-76
2022/08/21 12:24:17;;;;;;;2.75;2.05;;;31.20;96.70;;;;;;5022062;28;20046;-76
2022/08/21 12:26:51;;;;;;;5.05;2.17;;;31.40;96.70;;;;;;5006745;28;20492;-76
2022/08/21 12:29:24;;;;;;;5.78;2.13;;;31.70;96.70;;;;;;5025624;28;20049;-76
2022/08/21 12:31:56;;;;;;;4.18;1.85;;;31.80;96.70;;;;;;5018782;28;20136;-76
2022/08/21 12:34:33;;;;;;;3.85;1.80;;;31.70;96.70;;;;;;5022284;28;20045;-76
2022/08/21 12:37:06;;;;;;;5.72;1.88;;;31.60;96.70;;;;;;5014903;28;20048;-76
2022/08/21 12:39:39;;;;;;;1.85;1.27;;;31.40;96.70;;;;;;5023763;28;20049;-76
2022/08/21 12:42:17;;;;;;;3.53;1.67;;;31.30;96.70;;;;;;5013681;28;20042;-76
2022/08/21 12:44:50;;;;;;;4.13;1.80;;;31.20;96.70;;;;;;5013630;28;20096;-76
2022/08/21 12:47:27;;;;;;;3.38;1.63;;;31.30;96.70;;;;;;5020636;28;20458;-76
2022/08/21 12:50:01;;;;;;;3.10;1.75;;;31.30;96.70;;;;;;5025306;28;20060;-76
2022/08/21 12:52:32;;;;;;;4.28;1.65;;;31.30;96.70;;;;;;5019620;28;20052;-76
2022/08/21 12:55:07;;;;;;;3.83;1.65;;;31.30;96.70;;;;;;5020888;28;20054;-76
2022/08/21 12:57:37;;;;;;;5.50;1.90;;;31.30;96.70;;;;;;5019078;28;20170;-76
2022/08/21 13:00:11;;;;;;;2.25;1.65;;;31.20;96.70;;;;;;4998544;28;20152;-76
2022/08/21 13:02:46;;;;;;;3.90;2.05;;;31.40;96.70;;;;;;5022011;28;20143;-76
2022/08/21 13:05:24;;;;;;;4.50;2.40;;;31.60;96.70;;;;;;5020316;28;20206;-75